Detall de PIREP

Printer-friendly versionPDF version

[2012/09/27 14:29:00]
Flight IATA:CT1005
Pilot Number:037
Company ICAO:CAT
Aircraft Type:B752/E
PAX:76
Aircraft Registration:PAX
Departing Airport: EYVI
Destination Airport: EETN
Alternate Airport:EFHK
Online: VATSIM
Route:TAGOL M983 DOLAT Q77 KEMET
Flight Level:F290
No Slew and time accel
No pause
Crash detect
Detect pilot in Cockpit between each 30 and 45 minutes
14:29 Zero fuel Weight: 152408 Lbs, Fuel Weight: 15504 Lbs
14:29 VATSIM:EYVI 271420Z 17011KT CAVOK 22/15 Q1004 NOSIG
14:29 VATSIM:EETN 271420Z 22007KT 180V250 7000 OVC010 15/13 Q1001 NOSIG
14:39 Parking Brakes off
14:42 Take-off
14:42 Take off Weight: 167116 Lbs
14:42 Wind: 165º @ 011 Knots Heading: 200º
14:42 POS N54º 37´ 57´´ E025º 17´ 05´´
14:42 Flaps:2 at 174 Knots
14:42 Gear Up: 187 Knots
14:42 Flaps:1 at 191 Knots
14:42 Flaps:0 at 208 Knots
14:54 TOC
14:54 Fuel Weight: 11762 Lb
14:57 Wind:162º@030 Knots Heading: 357º Ground Speed: 527 Knots Altitude 28658 ft
15:11 TOD
15:11 Fuel Weight: 8893 Lb
15:12 Wind:206º@016 Knots Heading: 342º Ground Speed: 490 Knots Altitude 27529 ft
15:27 Wind:185º@010 Knots Heading: 042º Ground Speed: 239 Knots Altitude 3605 ft
15:28 Flaps:1 at 211 Knots
15:30 Flaps:2 at 190 Knots
15:31 Flaps:3 at 171 Knots
15:31 Gear Down: 170 Knots
15:32 Flaps:4 at 166 Knots
15:33 Flaps:5 at 165 Knots
15:33 Flaps:6 at 154 Knots
15:33 TouchDown:Rate -148 ft/min Speed: 133 Knots
15:34 VATSIM:EETN 271520Z VRB02KT 5000 -RA BKN009 OVC014 15/13 Q1000 TEMPO 3000 RADZ BR OVC006
15:34 Land
15:34 Wind:172º@006 Knots
15:34 Heading: 268º
15:34 Flight Duration: 00:52
15:34 Landing Weight: 159614 Lbs
15:34 POS N59º 24´ 47´´ E024º 49´ 38´´
15:37 Parking brakes on
15:37 Block to Block Duration: 00:58
15:37 Final Fuel: 6849 Lbls
15:37 Spent Fuel: 8655 Lbls
15:37 Flight Length: 300 NM
15:37 TOD Land Length: 72 NM

Exportar CSV

Powered by Drupal - Modified by Danger4k